Alamosa, Colorado
Current Conditions -  °F | °C
As of 10:52 PM on Wednesday 22 Oct 2014 (Local Time) from KALS Reporting Station
Clear Clear  
Wind Chill: 35°   Ceiling: Unl
Heat Index: 39°   Visibility: 10mi
Dew Point: 32°   Wind: 6mph
Humidity: 76%   Direction: 270°W
Pressure: 30.28"   Gusts: NA
Location:  37.47°N, 105.87°W
Report Text: KALS 230452Z AUTO 27005KT 10SM CLR 04/00 A3028 RMK AO2 SLP207 T00390000
Loading
Personal Weather Stations






























Interactive Weather Map
Tropical Storm Tracking
New forecast layout! Learn more

10-Day Weather Forecast

Advertisements
Track Severe Weather on mobile